sensor_id;sensor_type;location;lat;lon;timestamp;P1;durP1;ratioP1;P2;durP2;ratioP2
3627;SDS011;1830;49.000;12.074;2023-06-14T00:00:00;7.17;;;5.70;;
3627;SDS011;1830;49.000;12.074;2023-06-14T00:02:29;12.77;;;5.90;;
3627;SDS011;1830;49.000;12.074;2023-06-14T00:04:56;5.37;;;4.90;;
3627;SDS011;1830;49.000;12.074;2023-06-14T00:07:33;6.77;;;5.10;;
3627;SDS011;1830;49.000;12.074;2023-06-14T00:10:02;19.27;;;5.90;;
3627;SDS011;1830;49.000;12.074;2023-06-14T00:12:29;8.47;;;5.97;;
3627;SDS011;1830;49.000;12.074;2023-06-14T00:14:56;8.63;;;5.57;;
3627;SDS011;1830;49.000;12.074;2023-06-14T00:17:23;7.73;;;5.47;;
3627;SDS011;1830;49.000;12.074;2023-06-14T00:19:55;8.83;;;5.40;;
3627;SDS011;1830;49.000;12.074;2023-06-14T00:22:22;10.23;;;5.33;;
3627;SDS011;1830;49.000;12.074;2023-06-14T00:24:50;9.47;;;5.73;;
3627;SDS011;1830;49.000;12.074;2023-06-14T00:27:18;9.90;;;6.10;;
3627;SDS011;1830;49.000;12.074;2023-06-14T00:29:45;7.50;;;5.40;;
3627;SDS011;1830;49.000;12.074;2023-06-14T00:32:11;6.93;;;6.20;;
3627;SDS011;1830;49.000;12.074;2023-06-14T00:34:38;19.63;;;6.17;;
3627;SDS011;1830;49.000;12.074;2023-06-14T00:37:05;6.70;;;5.43;;
3627;SDS011;1830;49.000;12.074;2023-06-14T00:39:32;11.23;;;5.57;;
3627;SDS011;1830;49.000;12.074;2023-06-14T00:41:58;11.60;;;6.00;;
3627;SDS011;1830;49.000;12.074;2023-06-14T00:44:27;5.47;;;4.97;;
3627;SDS011;1830;49.000;12.074;2023-06-14T00:46:53;8.67;;;5.80;;
3627;SDS011;1830;49.000;12.074;2023-06-14T00:49:20;7.50;;;5.57;;
3627;SDS011;1830;49.000;12.074;2023-06-14T00:51:47;7.27;;;6.50;;
3627;SDS011;1830;49.000;12.074;2023-06-14T00:54:14;7.33;;;4.80;;
3627;SDS011;1830;49.000;12.074;2023-06-14T00:56:41;7.40;;;6.20;;
3627;SDS011;1830;49.000;12.074;2023-06-14T00:59:10;6.67;;;5.53;;
3627;SDS011;1830;49.000;12.074;2023-06-14T01:01:38;7.53;;;4.80;;
3627;SDS011;1830;49.000;12.074;2023-06-14T01:04:05;6.43;;;5.47;;
3627;SDS011;1830;49.000;12.074;2023-06-14T01:06:33;7.40;;;5.20;;
3627;SDS011;1830;49.000;12.074;2023-06-14T01:09:07;6.83;;;6.13;;
3627;SDS011;1830;49.000;12.074;2023-06-14T01:11:41;9.03;;;5.83;;
3627;SDS011;1830;49.000;12.074;2023-06-14T01:14:16;9.30;;;5.90;;
3627;SDS011;1830;49.000;12.074;2023-06-14T01:16:45;8.73;;;5.90;;
3627;SDS011;1830;49.000;12.074;2023-06-14T01:19:14;6.10;;;5.50;;
3627;SDS011;1830;49.000;12.074;2023-06-14T01:21:42;11.67;;;5.50;;
3627;SDS011;1830;49.000;12.074;2023-06-14T01:24:10;15.30;;;5.93;;
3627;SDS011;1830;49.000;12.074;2023-06-14T01:26:37;7.00;;;5.80;;
3627;SDS011;1830;49.000;12.074;2023-06-14T01:29:10;10.13;;;5.77;;
3627;SDS011;1830;49.000;12.074;2023-06-14T01:31:41;6.00;;;5.50;;
3627;SDS011;1830;49.000;12.074;2023-06-14T01:34:08;5.90;;;5.30;;
3627;SDS011;1830;49.000;12.074;2023-06-14T01:36:35;6.17;;;5.57;;
3627;SDS011;1830;49.000;12.074;2023-06-14T01:39:06;13.50;;;5.50;;
3627;SDS011;1830;49.000;12.074;2023-06-14T01:41:35;6.60;;;5.07;;
3627;SDS011;1830;49.000;12.074;2023-06-14T01:44:02;6.53;;;5.97;;
3627;SDS011;1830;49.000;12.074;2023-06-14T01:46:30;12.27;;;5.03;;
3627;SDS011;1830;49.000;12.074;2023-06-14T01:48:57;11.60;;;6.87;;
3627;SDS011;1830;49.000;12.074;2023-06-14T01:51:25;7.60;;;5.30;;
3627;SDS011;1830;49.000;12.074;2023-06-14T01:53:52;10.87;;;5.50;;
3627;SDS011;1830;49.000;12.074;2023-06-14T01:56:18;6.93;;;5.70;;
3627;SDS011;1830;49.000;12.074;2023-06-14T01:58:48;8.20;;;6.03;;
3627;SDS011;1830;49.000;12.074;2023-06-14T02:01:15;7.50;;;5.63;;
3627;SDS011;1830;49.000;12.074;2023-06-14T02:03:42;11.37;;;5.10;;
3627;SDS011;1830;49.000;12.074;2023-06-14T02:06:09;5.97;;;5.37;;
3627;SDS011;1830;49.000;12.074;2023-06-14T02:08:37;8.53;;;5.63;;
3627;SDS011;1830;49.000;12.074;2023-06-14T02:11:04;11.93;;;5.40;;
3627;SDS011;1830;49.000;12.074;2023-06-14T02:13:30;10.70;;;5.33;;
3627;SDS011;1830;49.000;12.074;2023-06-14T02:15:59;6.70;;;6.00;;
3627;SDS011;1830;49.000;12.074;2023-06-14T02:18:25;6.10;;;5.53;;
3627;SDS011;1830;49.000;12.074;2023-06-14T02:20:52;8.97;;;6.27;;
3627;SDS011;1830;49.000;12.074;2023-06-14T02:23:19;10.40;;;5.73;;
3627;SDS011;1830;49.000;12.074;2023-06-14T02:25:46;5.80;;;5.20;;
3627;SDS011;1830;49.000;12.074;2023-06-14T02:28:12;8.97;;;5.63;;
3627;SDS011;1830;49.000;12.074;2023-06-14T02:30:39;6.20;;;5.60;;
3627;SDS011;1830;49.000;12.074;2023-06-14T02:33:07;6.37;;;5.13;;
3627;SDS011;1830;49.000;12.074;2023-06-14T02:35:37;14.80;;;5.50;;
3627;SDS011;1830;49.000;12.074;2023-06-14T02:38:04;9.00;;;5.53;;
3627;SDS011;1830;49.000;12.074;2023-06-14T02:40:31;20.67;;;7.10;;
3627;SDS011;1830;49.000;12.074;2023-06-14T02:42:57;14.93;;;7.03;;
3627;SDS011;1830;49.000;12.074;2023-06-14T02:45:24;8.13;;;6.50;;
3627;SDS011;1830;49.000;12.074;2023-06-14T02:47:51;12.47;;;6.27;;
3627;SDS011;1830;49.000;12.074;2023-06-14T02:50:19;9.33;;;6.50;;
3627;SDS011;1830;49.000;12.074;2023-06-14T02:52:48;7.17;;;5.87;;
3627;SDS011;1830;49.000;12.074;2023-06-14T02:55:15;6.30;;;5.70;;
3627;SDS011;1830;49.000;12.074;2023-06-14T02:57:42;8.47;;;6.20;;
3627;SDS011;1830;49.000;12.074;2023-06-14T03:00:09;12.83;;;6.03;;
3627;SDS011;1830;49.000;12.074;2023-06-14T03:02:38;8.07;;;6.50;;
3627;SDS011;1830;49.000;12.074;2023-06-14T03:05:05;9.10;;;5.90;;
3627;SDS011;1830;49.000;12.074;2023-06-14T03:07:34;11.30;;;6.60;;
3627;SDS011;1830;49.000;12.074;2023-06-14T03:10:06;8.30;;;6.10;;
3627;SDS011;1830;49.000;12.074;2023-06-14T03:12:34;11.53;;;6.60;;
3627;SDS011;1830;49.000;12.074;2023-06-14T03:15:03;7.83;;;6.80;;
3627;SDS011;1830;49.000;12.074;2023-06-14T03:17:31;8.50;;;6.17;;
3627;SDS011;1830;49.000;12.074;2023-06-14T03:19:58;12.23;;;6.53;;
3627;SDS011;1830;49.000;12.074;2023-06-14T03:22:26;13.13;;;6.30;;
3627;SDS011;1830;49.000;12.074;2023-06-14T03:24:54;6.57;;;5.80;;
3627;SDS011;1830;49.000;12.074;2023-06-14T03:27:21;9.23;;;5.80;;
3627;SDS011;1830;49.000;12.074;2023-06-14T03:29:48;9.70;;;6.70;;
3627;SDS011;1830;49.000;12.074;2023-06-14T03:32:15;14.13;;;6.40;;
3627;SDS011;1830;49.000;12.074;2023-06-14T03:34:41;9.57;;;5.80;;
3627;SDS011;1830;49.000;12.074;2023-06-14T03:37:10;9.00;;;6.13;;
3627;SDS011;1830;49.000;12.074;2023-06-14T03:39:37;6.27;;;5.63;;
3627;SDS011;1830;49.000;12.074;2023-06-14T03:42:12;6.87;;;6.17;;
3627;SDS011;1830;49.000;12.074;2023-06-14T03:44:39;6.73;;;6.10;;
3627;SDS011;1830;49.000;12.074;2023-06-14T03:47:06;9.80;;;5.93;;
3627;SDS011;1830;49.000;12.074;2023-06-14T03:49:32;6.87;;;6.17;;
3627;SDS011;1830;49.000;12.074;2023-06-14T03:52:00;7.00;;;5.80;;
3627;SDS011;1830;49.000;12.074;2023-06-14T03:54:27;7.93;;;6.20;;
3627;SDS011;1830;49.000;12.074;2023-06-14T03:56:54;7.53;;;6.30;;
3627;SDS011;1830;49.000;12.074;2023-06-14T03:59:23;9.20;;;6.70;;
3627;SDS011;1830;49.000;12.074;2023-06-14T04:01:50;12.30;;;7.20;;
3627;SDS011;1830;49.000;12.074;2023-06-14T04:04:18;10.90;;;7.47;;
3627;SDS011;1830;49.000;12.074;2023-06-14T04:06:46;13.83;;;6.80;;
3627;SDS011;1830;49.000;12.074;2023-06-14T04:09:13;10.07;;;7.37;;
3627;SDS011;1830;49.000;12.074;2023-06-14T04:11:40;11.60;;;7.43;;
3627;SDS011;1830;49.000;12.074;2023-06-14T04:14:06;12.17;;;7.70;;
3627;SDS011;1830;49.000;12.074;2023-06-14T04:16:35;9.83;;;6.50;;
3627;SDS011;1830;49.000;12.074;2023-06-14T04:19:02;8.17;;;7.33;;
3627;SDS011;1830;49.000;12.074;2023-06-14T04:21:28;11.97;;;7.40;;
3627;SDS011;1830;49.000;12.074;2023-06-14T04:23:55;11.17;;;6.93;;
3627;SDS011;1830;49.000;12.074;2023-06-14T04:26:22;18.40;;;7.53;;
3627;SDS011;1830;49.000;12.074;2023-06-14T04:28:54;10.43;;;7.43;;
3627;SDS011;1830;49.000;12.074;2023-06-14T04:31:21;15.63;;;7.77;;
3627;SDS011;1830;49.000;12.074;2023-06-14T04:33:51;14.33;;;8.00;;
3627;SDS011;1830;49.000;12.074;2023-06-14T04:36:18;12.20;;;7.10;;
3627;SDS011;1830;49.000;12.074;2023-06-14T04:38:45;14.43;;;9.03;;
3627;SDS011;1830;49.000;12.074;2023-06-14T04:41:14;11.93;;;9.40;;
3627;SDS011;1830;49.000;12.074;2023-06-14T04:43:41;19.83;;;8.10;;
3627;SDS011;1830;49.000;12.074;2023-06-14T04:46:08;11.50;;;7.57;;
3627;SDS011;1830;49.000;12.074;2023-06-14T04:48:36;8.70;;;7.37;;
3627;SDS011;1830;49.000;12.074;2023-06-14T04:51:05;28.73;;;8.30;;
3627;SDS011;1830;49.000;12.074;2023-06-14T04:53:32;9.50;;;7.90;;
3627;SDS011;1830;49.000;12.074;2023-06-14T04:55:59;8.80;;;6.47;;
3627;SDS011;1830;49.000;12.074;2023-06-14T04:58:28;14.03;;;7.43;;
3627;SDS011;1830;49.000;12.074;2023-06-14T05:00:54;9.10;;;7.70;;
3627;SDS011;1830;49.000;12.074;2023-06-14T05:03:24;12.87;;;7.27;;
3627;SDS011;1830;49.000;12.074;2023-06-14T05:05:55;19.33;;;7.43;;
3627;SDS011;1830;49.000;12.074;2023-06-14T05:08:23;7.80;;;6.30;;
3627;SDS011;1830;49.000;12.074;2023-06-14T05:10:50;12.13;;;7.30;;
3627;SDS011;1830;49.000;12.074;2023-06-14T05:13:18;10.57;;;7.37;;
3627;SDS011;1830;49.000;12.074;2023-06-14T05:15:45;12.80;;;6.70;;
3627;SDS011;1830;49.000;12.074;2023-06-14T05:18:12;14.73;;;7.10;;
3627;SDS011;1830;49.000;12.074;2023-06-14T05:20:40;11.50;;;5.83;;
3627;SDS011;1830;49.000;12.074;2023-06-14T05:23:08;7.70;;;6.83;;
3627;SDS011;1830;49.000;12.074;2023-06-14T05:25:41;6.97;;;6.27;;
3627;SDS011;1830;49.000;12.074;2023-06-14T05:28:08;8.83;;;7.03;;
3627;SDS011;1830;49.000;12.074;2023-06-14T05:30:35;12.37;;;6.60;;
3627;SDS011;1830;49.000;12.074;2023-06-14T05:33:03;9.90;;;7.10;;
3627;SDS011;1830;49.000;12.074;2023-06-14T05:35:30;11.70;;;7.63;;
3627;SDS011;1830;49.000;12.074;2023-06-14T05:37:57;7.50;;;5.87;;
3627;SDS011;1830;49.000;12.074;2023-06-14T05:40:24;9.70;;;6.43;;
3627;SDS011;1830;49.000;12.074;2023-06-14T05:42:52;7.17;;;6.43;;
3627;SDS011;1830;49.000;12.074;2023-06-14T05:45:19;6.80;;;6.20;;
3627;SDS011;1830;49.000;12.074;2023-06-14T05:47:45;7.70;;;6.60;;
3627;SDS011;1830;49.000;12.074;2023-06-14T05:50:12;6.83;;;6.13;;
3627;SDS011;1830;49.000;12.074;2023-06-14T05:52:39;7.93;;;6.87;;
3627;SDS011;1830;49.000;12.074;2023-06-14T05:55:06;12.43;;;6.83;;
3627;SDS011;1830;49.000;12.074;2023-06-14T05:57:33;9.53;;;6.47;;
3627;SDS011;1830;49.000;12.074;2023-06-14T06:00:04;11.13;;;6.03;;
3627;SDS011;1830;49.000;12.074;2023-06-14T06:02:36;14.83;;;7.03;;
3627;SDS011;1830;49.000;12.074;2023-06-14T06:05:03;9.40;;;6.93;;
3627;SDS011;1830;49.000;12.074;2023-06-14T06:07:31;12.00;;;6.90;;
3627;SDS011;1830;49.000;12.074;2023-06-14T06:09:58;19.63;;;7.13;;
3627;SDS011;1830;49.000;12.074;2023-06-14T06:12:24;9.03;;;7.20;;
3627;SDS011;1830;49.000;12.074;2023-06-14T06:14:51;8.90;;;6.37;;
3627;SDS011;1830;49.000;12.074;2023-06-14T06:17:19;6.97;;;5.87;;
3627;SDS011;1830;49.000;12.074;2023-06-14T06:19:46;10.03;;;7.07;;
3627;SDS011;1830;49.000;12.074;2023-06-14T06:22:13;10.97;;;6.60;;
3627;SDS011;1830;49.000;12.074;2023-06-14T06:24:40;8.97;;;6.83;;
3627;SDS011;1830;49.000;12.074;2023-06-14T06:27:06;8.10;;;7.20;;
3627;SDS011;1830;49.000;12.074;2023-06-14T06:29:34;9.10;;;6.00;;
3627;SDS011;1830;49.000;12.074;2023-06-14T06:32:01;9.17;;;6.40;;
3627;SDS011;1830;49.000;12.074;2023-06-14T06:34:29;12.80;;;6.07;;
3627;SDS011;1830;49.000;12.074;2023-06-14T06:36:56;9.30;;;6.10;;
3627;SDS011;1830;49.000;12.074;2023-06-14T06:39:22;14.07;;;6.60;;
3627;SDS011;1830;49.000;12.074;2023-06-14T06:41:49;12.90;;;7.30;;
3627;SDS011;1830;49.000;12.074;2023-06-14T06:44:16;22.87;;;6.20;;
3627;SDS011;1830;49.000;12.074;2023-06-14T06:46:43;8.57;;;6.00;;
3627;SDS011;1830;49.000;12.074;2023-06-14T06:49:12;12.93;;;6.80;;
3627;SDS011;1830;49.000;12.074;2023-06-14T06:51:42;7.00;;;6.30;;
3627;SDS011;1830;49.000;12.074;2023-06-14T06:54:09;17.97;;;6.40;;
3627;SDS011;1830;49.000;12.074;2023-06-14T06:56:36;15.10;;;5.63;;
3627;SDS011;1830;49.000;12.074;2023-06-14T06:59:03;7.47;;;5.80;;
3627;SDS011;1830;49.000;12.074;2023-06-14T07:01:30;7.63;;;6.87;;
3627;SDS011;1830;49.000;12.074;2023-06-14T07:03:58;11.40;;;6.27;;
3627;SDS011;1830;49.000;12.074;2023-06-14T07:06:25;15.23;;;6.53;;
3627;SDS011;1830;49.000;12.074;2023-06-14T07:08:54;12.67;;;6.50;;
3627;SDS011;1830;49.000;12.074;2023-06-14T07:11:26;10.43;;;6.00;;
3627;SDS011;1830;49.000;12.074;2023-06-14T07:13:53;12.30;;;6.67;;
3627;SDS011;1830;49.000;12.074;2023-06-14T07:16:20;8.67;;;6.63;;
3627;SDS011;1830;49.000;12.074;2023-06-14T07:18:46;6.57;;;5.83;;
3627;SDS011;1830;49.000;12.074;2023-06-14T07:21:13;10.13;;;7.00;;
3627;SDS011;1830;49.000;12.074;2023-06-14T07:23:40;7.27;;;5.80;;
3627;SDS011;1830;49.000;12.074;2023-06-14T07:26:08;14.73;;;5.43;;
3627;SDS011;1830;49.000;12.074;2023-06-14T07:28:35;6.10;;;5.13;;
3627;SDS011;1830;49.000;12.074;2023-06-14T07:31:02;8.33;;;5.57;;
3627;SDS011;1830;49.000;12.074;2023-06-14T07:33:28;6.33;;;5.73;;
3627;SDS011;1830;49.000;12.074;2023-06-14T07:35:55;20.87;;;6.47;;
3627;SDS011;1830;49.000;12.074;2023-06-14T07:38:22;9.50;;;6.33;;
3627;SDS011;1830;49.000;12.074;2023-06-14T07:40:49;10.40;;;5.50;;
3627;SDS011;1830;49.000;12.074;2023-06-14T07:43:17;7.50;;;5.40;;
3627;SDS011;1830;49.000;12.074;2023-06-14T07:45:44;12.50;;;5.40;;
3627;SDS011;1830;49.000;12.074;2023-06-14T07:48:11;9.90;;;6.43;;
3627;SDS011;1830;49.000;12.074;2023-06-14T07:50:37;7.07;;;5.50;;
3627;SDS011;1830;49.000;12.074;2023-06-14T07:53:04;5.23;;;4.70;;
3627;SDS011;1830;49.000;12.074;2023-06-14T07:55:31;11.67;;;4.73;;
3627;SDS011;1830;49.000;12.074;2023-06-14T07:58:01;11.50;;;5.27;;
3627;SDS011;1830;49.000;12.074;2023-06-14T08:00:29;16.40;;;5.77;;
3627;SDS011;1830;49.000;12.074;2023-06-14T08:02:57;10.03;;;5.30;;
3627;SDS011;1830;49.000;12.074;2023-06-14T08:05:24;13.60;;;4.93;;
3627;SDS011;1830;49.000;12.074;2023-06-14T08:07:51;8.47;;;4.87;;
3627;SDS011;1830;49.000;12.074;2023-06-14T08:10:18;8.57;;;4.60;;
3627;SDS011;1830;49.000;12.074;2023-06-14T08:12:45;9.40;;;5.17;;
3627;SDS011;1830;49.000;12.074;2023-06-14T08:15:13;7.40;;;5.13;;
3627;SDS011;1830;49.000;12.074;2023-06-14T08:17:41;11.20;;;5.47;;
3627;SDS011;1830;49.000;12.074;2023-06-14T08:20:09;5.57;;;5.00;;
3627;SDS011;1830;49.000;12.074;2023-06-14T08:22:36;8.30;;;4.80;;
3627;SDS011;1830;49.000;12.074;2023-06-14T08:25:04;5.90;;;4.77;;
3627;SDS011;1830;49.000;12.074;2023-06-14T08:27:32;11.23;;;5.63;;
3627;SDS011;1830;49.000;12.074;2023-06-14T08:29:59;13.43;;;5.13;;
3627;SDS011;1830;49.000;12.074;2023-06-14T08:32:27;14.53;;;5.67;;
3627;SDS011;1830;49.000;12.074;2023-06-14T08:34:55;9.43;;;4.90;;
3627;SDS011;1830;49.000;12.074;2023-06-14T08:37:22;15.10;;;6.03;;
3627;SDS011;1830;49.000;12.074;2023-06-14T08:39:49;20.07;;;5.50;;
3627;SDS011;1830;49.000;12.074;2023-06-14T08:42:16;10.63;;;5.43;;
3627;SDS011;1830;49.000;12.074;2023-06-14T08:44:47;7.23;;;5.13;;
3627;SDS011;1830;49.000;12.074;2023-06-14T08:47:14;6.93;;;5.50;;
3627;SDS011;1830;49.000;12.074;2023-06-14T08:49:45;8.67;;;4.77;;
3627;SDS011;1830;49.000;12.074;2023-06-14T08:52:15;14.20;;;5.40;;
3627;SDS011;1830;49.000;12.074;2023-06-14T08:54:45;25.03;;;5.50;;
3627;SDS011;1830;49.000;12.074;2023-06-14T08:57:13;7.80;;;5.67;;
3627;SDS011;1830;49.000;12.074;2023-06-14T08:59:44;11.70;;;5.33;;
3627;SDS011;1830;49.000;12.074;2023-06-14T09:02:14;7.90;;;5.90;;
3627;SDS011;1830;49.000;12.074;2023-06-14T09:04:42;5.80;;;5.20;;
3627;SDS011;1830;49.000;12.074;2023-06-14T09:07:09;7.97;;;4.47;;
3627;SDS011;1830;49.000;12.074;2023-06-14T09:09:39;7.03;;;5.40;;
3627;SDS011;1830;49.000;12.074;2023-06-14T09:12:07;8.07;;;5.13;;
3627;SDS011;1830;49.000;12.074;2023-06-14T09:14:37;6.93;;;5.50;;
3627;SDS011;1830;49.000;12.074;2023-06-14T09:17:06;6.60;;;4.70;;
3627;SDS011;1830;49.000;12.074;2023-06-14T09:19:33;5.90;;;4.77;;
3627;SDS011;1830;49.000;12.074;2023-06-14T09:22:01;9.73;;;5.87;;
3627;SDS011;1830;49.000;12.074;2023-06-14T09:24:29;8.73;;;4.93;;
3627;SDS011;1830;49.000;12.074;2023-06-14T09:26:57;9.63;;;5.17;;
3627;SDS011;1830;49.000;12.074;2023-06-14T09:29:23;8.00;;;5.53;;
3627;SDS011;1830;49.000;12.074;2023-06-14T09:31:51;17.27;;;5.57;;
3627;SDS011;1830;49.000;12.074;2023-06-14T09:34:18;12.33;;;5.07;;
3627;SDS011;1830;49.000;12.074;2023-06-14T09:36:48;13.17;;;6.03;;
3627;SDS011;1830;49.000;12.074;2023-06-14T09:39:16;17.93;;;5.30;;
3627;SDS011;1830;49.000;12.074;2023-06-14T09:41:44;9.27;;;5.33;;
3627;SDS011;1830;49.000;12.074;2023-06-14T09:44:12;20.63;;;6.20;;
3627;SDS011;1830;49.000;12.074;2023-06-14T09:46:38;11.73;;;5.53;;
3627;SDS011;1830;49.000;12.074;2023-06-14T09:49:05;10.23;;;5.87;;
3627;SDS011;1830;49.000;12.074;2023-06-14T09:51:33;18.03;;;5.47;;
3627;SDS011;1830;49.000;12.074;2023-06-14T09:54:01;7.23;;;5.57;;
3627;SDS011;1830;49.000;12.074;2023-06-14T09:56:30;13.30;;;5.70;;
3627;SDS011;1830;49.000;12.074;2023-06-14T09:58:58;12.70;;;5.27;;
3627;SDS011;1830;49.000;12.074;2023-06-14T10:01:29;7.60;;;5.40;;
3627;SDS011;1830;49.000;12.074;2023-06-14T10:03:58;12.33;;;5.20;;
3627;SDS011;1830;49.000;12.074;2023-06-14T10:06:29;8.20;;;5.60;;
3627;SDS011;1830;49.000;12.074;2023-06-14T10:08:57;9.90;;;6.17;;
3627;SDS011;1830;49.000;12.074;2023-06-14T10:11:25;12.23;;;5.13;;
3627;SDS011;1830;49.000;12.074;2023-06-14T10:13:52;7.63;;;5.20;;
3627;SDS011;1830;49.000;12.074;2023-06-14T10:16:22;5.80;;;5.10;;
3627;SDS011;1830;49.000;12.074;2023-06-14T10:19:06;16.40;;;5.20;;
3627;SDS011;1830;49.000;12.074;2023-06-14T10:21:41;8.50;;;5.60;;
3627;SDS011;1830;49.000;12.074;2023-06-14T10:24:15;6.50;;;4.70;;
3627;SDS011;1830;49.000;12.074;2023-06-14T10:26:50;13.00;;;5.30;;
3627;SDS011;1830;49.000;12.074;2023-06-14T10:29:17;8.50;;;5.23;;
3627;SDS011;1830;49.000;12.074;2023-06-14T10:31:45;11.90;;;5.57;;
3627;SDS011;1830;49.000;12.074;2023-06-14T10:34:20;7.80;;;5.23;;
3627;SDS011;1830;49.000;12.074;2023-06-14T10:36:59;9.73;;;4.83;;
3627;SDS011;1830;49.000;12.074;2023-06-14T10:39:27;8.10;;;5.60;;
3627;SDS011;1830;49.000;12.074;2023-06-14T10:41:55;10.23;;;5.83;;
3627;SDS011;1830;49.000;12.074;2023-06-14T10:44:42;7.67;;;4.70;;
3627;SDS011;1830;49.000;12.074;2023-06-14T10:47:11;10.80;;;4.73;;
3627;SDS011;1830;49.000;12.074;2023-06-14T10:49:49;6.30;;;4.70;;
3627;SDS011;1830;49.000;12.074;2023-06-14T10:52:20;8.90;;;5.70;;
3627;SDS011;1830;49.000;12.074;2023-06-14T10:57:39;13.43;;;5.53;;
3627;SDS011;1830;49.000;12.074;2023-06-14T11:00:08;12.43;;;5.60;;
3627;SDS011;1830;49.000;12.074;2023-06-14T11:05:52;6.87;;;5.40;;
3627;SDS011;1830;49.000;12.074;2023-06-14T11:08:28;7.60;;;5.50;;
3627;SDS011;1830;49.000;12.074;2023-06-14T11:11:07;5.80;;;5.10;;
3627;SDS011;1830;49.000;12.074;2023-06-14T11:13:34;6.20;;;5.60;;
3627;SDS011;1830;49.000;12.074;2023-06-14T11:16:09;7.40;;;5.70;;
3627;SDS011;1830;49.000;12.074;2023-06-14T11:18:37;7.27;;;5.03;;
3627;SDS011;1830;49.000;12.074;2023-06-14T11:21:05;8.63;;;5.53;;
3627;SDS011;1830;49.000;12.074;2023-06-14T11:23:32;12.57;;;5.60;;
3627;SDS011;1830;49.000;12.074;2023-06-14T11:25:58;10.57;;;5.10;;
3627;SDS011;1830;49.000;12.074;2023-06-14T11:28:35;6.27;;;5.67;;
3627;SDS011;1830;49.000;12.074;2023-06-14T11:31:03;15.43;;;6.33;;
3627;SDS011;1830;49.000;12.074;2023-06-14T11:33:30;9.53;;;5.03;;
3627;SDS011;1830;49.000;12.074;2023-06-14T11:35:57;13.00;;;6.00;;
3627;SDS011;1830;49.000;12.074;2023-06-14T11:38:25;8.83;;;5.17;;
3627;SDS011;1830;49.000;12.074;2023-06-14T11:40:52;6.50;;;5.47;;
3627;SDS011;1830;49.000;12.074;2023-06-14T11:43:19;8.60;;;5.70;;
3627;SDS011;1830;49.000;12.074;2023-06-14T11:45:47;6.93;;;5.27;;
3627;SDS011;1830;49.000;12.074;2023-06-14T11:48:14;15.63;;;6.27;;
3627;SDS011;1830;49.000;12.074;2023-06-14T11:50:41;9.90;;;5.17;;
3627;SDS011;1830;49.000;12.074;2023-06-14T11:53:08;11.97;;;5.13;;
3627;SDS011;1830;49.000;12.074;2023-06-14T11:55:37;11.67;;;4.73;;
3627;SDS011;1830;49.000;12.074;2023-06-14T11:58:05;13.20;;;5.57;;
3627;SDS011;1830;49.000;12.074;2023-06-14T12:00:32;6.75;;;5.30;;
3627;SDS011;1830;49.000;12.074;2023-06-14T12:03:01;13.93;;;5.30;;
3627;SDS011;1830;49.000;12.074;2023-06-14T12:05:28;7.27;;;5.67;;
3627;SDS011;1830;49.000;12.074;2023-06-14T12:07:58;9.60;;;5.30;;
3627;SDS011;1830;49.000;12.074;2023-06-14T12:10:26;9.73;;;5.87;;
3627;SDS011;1830;49.000;12.074;2023-06-14T12:12:57;7.73;;;5.40;;
3627;SDS011;1830;49.000;12.074;2023-06-14T12:15:27;14.85;;;5.30;;
3627;SDS011;1830;49.000;12.074;2023-06-14T12:17:55;10.00;;;6.20;;
3627;SDS011;1830;49.000;12.074;2023-06-14T12:20:21;11.80;;;5.33;;
3627;SDS011;1830;49.000;12.074;2023-06-14T12:22:52;9.93;;;6.20;;
3627;SDS011;1830;49.000;12.074;2023-06-14T12:25:26;14.97;;;5.60;;
3627;SDS011;1830;49.000;12.074;2023-06-14T12:27:55;31.93;;;7.10;;
3627;SDS011;1830;49.000;12.074;2023-06-14T12:30:24;11.63;;;5.83;;
3627;SDS011;1830;49.000;12.074;2023-06-14T12:32:50;9.53;;;6.07;;
3627;SDS011;1830;49.000;12.074;2023-06-14T12:35:17;9.47;;;5.73;;
3627;SDS011;1830;49.000;12.074;2023-06-14T12:37:44;18.87;;;5.03;;
3627;SDS011;1830;49.000;12.074;2023-06-14T12:40:11;14.13;;;6.10;;
3627;SDS011;1830;49.000;12.074;2023-06-14T12:42:38;9.97;;;5.23;;
3627;SDS011;1830;49.000;12.074;2023-06-14T12:45:07;72.20;;;7.87;;
3627;SDS011;1830;49.000;12.074;2023-06-14T12:47:35;12.10;;;5.33;;
3627;SDS011;1830;49.000;12.074;2023-06-14T12:50:02;18.47;;;5.33;;
3627;SDS011;1830;49.000;12.074;2023-06-14T12:52:29;9.00;;;6.27;;
3627;SDS011;1830;49.000;12.074;2023-06-14T12:54:56;10.83;;;5.23;;
3627;SDS011;1830;49.000;12.074;2023-06-14T12:57:23;9.10;;;5.90;;
3627;SDS011;1830;49.000;12.074;2023-06-14T12:59:50;10.90;;;5.40;;
3627;SDS011;1830;49.000;12.074;2023-06-14T13:02:19;10.13;;;6.23;;
3627;SDS011;1830;49.000;12.074;2023-06-14T13:04:47;15.93;;;5.13;;
3627;SDS011;1830;49.000;12.074;2023-06-14T13:07:15;17.02;;;5.53;;
3627;SDS011;1830;49.000;12.074;2023-06-14T13:09:42;10.63;;;5.67;;
3627;SDS011;1830;49.000;12.074;2023-06-14T13:12:09;7.20;;;5.40;;
3627;SDS011;1830;49.000;12.074;2023-06-14T13:14:37;14.05;;;5.18;;
3627;SDS011;1830;49.000;12.074;2023-06-14T13:17:04;14.43;;;5.60;;
3627;SDS011;1830;49.000;12.074;2023-06-14T13:19:33;12.38;;;4.85;;
3627;SDS011;1830;49.000;12.074;2023-06-14T13:22:00;6.65;;;5.15;;
3627;SDS011;1830;49.000;12.074;2023-06-14T13:24:26;9.60;;;5.45;;
3627;SDS011;1830;49.000;12.074;2023-06-14T13:26:54;4.88;;;4.43;;
3627;SDS011;1830;49.000;12.074;2023-06-14T13:29:22;7.70;;;4.95;;
3627;SDS011;1830;49.000;12.074;2023-06-14T13:31:49;12.32;;;4.78;;
3627;SDS011;1830;49.000;12.074;2023-06-14T13:34:16;6.35;;;5.07;;
3627;SDS011;1830;49.000;12.074;2023-06-14T13:36:44;10.40;;;5.13;;
3627;SDS011;1830;49.000;12.074;2023-06-14T13:39:12;8.63;;;5.40;;
3627;SDS011;1830;49.000;12.074;2023-06-14T13:41:39;11.13;;;5.25;;
3627;SDS011;1830;49.000;12.074;2023-06-14T13:44:06;5.87;;;5.37;;
3627;SDS011;1830;49.000;12.074;2023-06-14T13:46:33;9.60;;;5.20;;
3627;SDS011;1830;49.000;12.074;2023-06-14T13:49:00;9.77;;;5.30;;
3627;SDS011;1830;49.000;12.074;2023-06-14T13:51:27;12.82;;;5.45;;
3627;SDS011;1830;49.000;12.074;2023-06-14T13:53:55;8.65;;;4.93;;
3627;SDS011;1830;49.000;12.074;2023-06-14T13:56:22;10.60;;;5.85;;
3627;SDS011;1830;49.000;12.074;2023-06-14T13:58:49;10.43;;;5.10;;
3627;SDS011;1830;49.000;12.074;2023-06-14T14:01:17;5.88;;;5.22;;
3627;SDS011;1830;49.000;12.074;2023-06-14T14:03:44;7.25;;;5.57;;
3627;SDS011;1830;49.000;12.074;2023-06-14T14:06:11;23.00;;;5.45;;
3627;SDS011;1830;49.000;12.074;2023-06-14T14:08:38;9.88;;;5.05;;
3627;SDS011;1830;49.000;12.074;2023-06-14T14:11:07;9.73;;;5.07;;
3627;SDS011;1830;49.000;12.074;2023-06-14T14:13:34;13.75;;;5.28;;
3627;SDS011;1830;49.000;12.074;2023-06-14T14:16:03;9.00;;;5.10;;
3627;SDS011;1830;49.000;12.074;2023-06-14T14:18:31;13.50;;;4.95;;
3627;SDS011;1830;49.000;12.074;2023-06-14T14:20:58;16.33;;;5.55;;
3627;SDS011;1830;49.000;12.074;2023-06-14T14:23:25;20.35;;;5.57;;
3627;SDS011;1830;49.000;12.074;2023-06-14T14:25:52;7.60;;;5.03;;
3627;SDS011;1830;49.000;12.074;2023-06-14T14:28:21;13.15;;;5.22;;
3627;SDS011;1830;49.000;12.074;2023-06-14T14:30:47;5.13;;;4.53;;
3627;SDS011;1830;49.000;12.074;2023-06-14T14:33:14;7.55;;;5.10;;
3627;SDS011;1830;49.000;12.074;2023-06-14T14:35:42;12.60;;;5.40;;
3627;SDS011;1830;49.000;12.074;2023-06-14T14:38:10;6.00;;;4.88;;
3627;SDS011;1830;49.000;12.074;2023-06-14T14:40:38;8.88;;;5.15;;
3627;SDS011;1830;49.000;12.074;2023-06-14T14:43:05;8.40;;;4.75;;
3627;SDS011;1830;49.000;12.074;2023-06-14T14:45:33;5.70;;;4.97;;
3627;SDS011;1830;49.000;12.074;2023-06-14T14:48:00;14.18;;;5.05;;
3627;SDS011;1830;49.000;12.074;2023-06-14T14:50:27;7.72;;;5.35;;
3627;SDS011;1830;49.000;12.074;2023-06-14T14:52:54;11.10;;;5.05;;
3627;SDS011;1830;49.000;12.074;2023-06-14T14:55:21;13.40;;;5.35;;
3627;SDS011;1830;49.000;12.074;2023-06-14T14:57:48;5.20;;;4.63;;
3627;SDS011;1830;49.000;12.074;2023-06-14T15:00:15;6.18;;;4.90;;
3627;SDS011;1830;49.000;12.074;2023-06-14T15:02:43;5.47;;;4.95;;
3627;SDS011;1830;49.000;12.074;2023-06-14T15:05:10;4.93;;;4.40;;